sensor_id;sensor_type;location;lat;lon;timestamp;P1;durP1;ratioP1;P2;durP2;ratioP2
10045;SDS011;5063;50.878;4.742;2023-02-28T00:01:11;10.07;;;5.30;;
10045;SDS011;5063;50.878;4.742;2023-02-28T00:03:37;9.20;;;5.33;;
10045;SDS011;5063;50.878;4.742;2023-02-28T00:06:03;8.67;;;5.20;;
10045;SDS011;5063;50.878;4.742;2023-02-28T00:08:30;5.80;;;4.80;;
10045;SDS011;5063;50.878;4.742;2023-02-28T00:11:00;7.23;;;5.43;;
10045;SDS011;5063;50.878;4.742;2023-02-28T00:13:27;8.20;;;5.10;;
10045;SDS011;5063;50.878;4.742;2023-02-28T00:16:00;6.47;;;5.17;;
10045;SDS011;5063;50.878;4.742;2023-02-28T00:18:33;8.87;;;5.53;;
10045;SDS011;5063;50.878;4.742;2023-02-28T00:20:59;9.67;;;5.17;;
10045;SDS011;5063;50.878;4.742;2023-02-28T00:23:25;10.07;;;5.17;;
10045;SDS011;5063;50.878;4.742;2023-02-28T00:25:52;8.60;;;5.67;;
10045;SDS011;5063;50.878;4.742;2023-02-28T00:28:18;8.77;;;5.10;;
10045;SDS011;5063;50.878;4.742;2023-02-28T00:30:44;6.60;;;5.17;;
10045;SDS011;5063;50.878;4.742;2023-02-28T00:33:09;7.53;;;5.40;;
10045;SDS011;5063;50.878;4.742;2023-02-28T00:35:35;9.03;;;5.60;;
10045;SDS011;5063;50.878;4.742;2023-02-28T00:38:01;9.00;;;5.10;;
10045;SDS011;5063;50.878;4.742;2023-02-28T00:40:27;6.57;;;4.57;;
10045;SDS011;5063;50.878;4.742;2023-02-28T00:42:53;10.07;;;5.53;;
10045;SDS011;5063;50.878;4.742;2023-02-28T00:45:19;6.63;;;4.73;;
10045;SDS011;5063;50.878;4.742;2023-02-28T00:47:44;6.13;;;4.70;;
10045;SDS011;5063;50.878;4.742;2023-02-28T00:50:12;6.70;;;5.27;;
10045;SDS011;5063;50.878;4.742;2023-02-28T00:52:37;6.00;;;4.37;;
10045;SDS011;5063;50.878;4.742;2023-02-28T00:55:03;10.27;;;5.23;;
10045;SDS011;5063;50.878;4.742;2023-02-28T00:57:29;7.47;;;4.80;;
10045;SDS011;5063;50.878;4.742;2023-02-28T00:59:55;7.90;;;4.77;;
10045;SDS011;5063;50.878;4.742;2023-02-28T01:02:21;6.77;;;4.97;;
10045;SDS011;5063;50.878;4.742;2023-02-28T01:04:48;6.50;;;5.23;;
10045;SDS011;5063;50.878;4.742;2023-02-28T01:07:14;10.63;;;5.20;;
10045;SDS011;5063;50.878;4.742;2023-02-28T01:09:40;5.87;;;4.63;;
10045;SDS011;5063;50.878;4.742;2023-02-28T01:12:06;6.73;;;4.43;;
10045;SDS011;5063;50.878;4.742;2023-02-28T01:14:33;7.43;;;4.80;;
10045;SDS011;5063;50.878;4.742;2023-02-28T01:16:59;9.87;;;4.40;;
10045;SDS011;5063;50.878;4.742;2023-02-28T01:19:26;6.57;;;4.53;;
10045;SDS011;5063;50.878;4.742;2023-02-28T01:21:51;6.77;;;4.70;;
10045;SDS011;5063;50.878;4.742;2023-02-28T01:24:17;6.07;;;5.17;;
10045;SDS011;5063;50.878;4.742;2023-02-28T01:26:43;5.47;;;4.70;;
10045;SDS011;5063;50.878;4.742;2023-02-28T01:29:09;5.47;;;4.57;;
10045;SDS011;5063;50.878;4.742;2023-02-28T01:31:35;10.63;;;5.50;;
10045;SDS011;5063;50.878;4.742;2023-02-28T01:34:00;7.97;;;5.57;;
10045;SDS011;5063;50.878;4.742;2023-02-28T01:36:27;5.13;;;4.63;;
10045;SDS011;5063;50.878;4.742;2023-02-28T01:38:53;7.43;;;5.23;;
10045;SDS011;5063;50.878;4.742;2023-02-28T01:46:10;10.63;;;5.67;;
10045;SDS011;5063;50.878;4.742;2023-02-28T01:48:42;8.93;;;5.30;;
10045;SDS011;5063;50.878;4.742;2023-02-28T01:51:38;8.43;;;5.57;;
10045;SDS011;5063;50.878;4.742;2023-02-28T01:54:11;8.10;;;5.70;;
10045;SDS011;5063;50.878;4.742;2023-02-28T01:56:43;5.90;;;4.60;;
10045;SDS011;5063;50.878;4.742;2023-02-28T01:59:13;9.20;;;6.37;;
10045;SDS011;5063;50.878;4.742;2023-02-28T02:01:43;7.67;;;5.03;;
10045;SDS011;5063;50.878;4.742;2023-02-28T02:04:09;6.17;;;5.17;;
10045;SDS011;5063;50.878;4.742;2023-02-28T02:06:37;12.80;;;5.50;;
10045;SDS011;5063;50.878;4.742;2023-02-28T02:09:07;11.07;;;5.27;;
10045;SDS011;5063;50.878;4.742;2023-02-28T02:11:33;7.20;;;5.23;;
10045;SDS011;5063;50.878;4.742;2023-02-28T02:17:42;6.47;;;5.70;;
10045;SDS011;5063;50.878;4.742;2023-02-28T02:25:56;9.47;;;5.53;;
10045;SDS011;5063;50.878;4.742;2023-02-28T02:31:27;9.57;;;5.57;;
10045;SDS011;5063;50.878;4.742;2023-02-28T02:40:00;10.33;;;5.67;;
10045;SDS011;5063;50.878;4.742;2023-02-28T02:47:46;7.40;;;5.70;;
10045;SDS011;5063;50.878;4.742;2023-02-28T02:50:19;9.33;;;6.23;;
10045;SDS011;5063;50.878;4.742;2023-02-28T02:52:55;7.90;;;5.10;;
10045;SDS011;5063;50.878;4.742;2023-02-28T02:55:23;10.17;;;5.53;;
10045;SDS011;5063;50.878;4.742;2023-02-28T03:00:22;8.87;;;5.40;;
10045;SDS011;5063;50.878;4.742;2023-02-28T03:02:52;6.97;;;5.40;;
10045;SDS011;5063;50.878;4.742;2023-02-28T03:05:30;9.47;;;5.90;;
10045;SDS011;5063;50.878;4.742;2023-02-28T03:08:04;8.87;;;5.57;;
10045;SDS011;5063;50.878;4.742;2023-02-28T03:10:36;7.00;;;5.33;;
10045;SDS011;5063;50.878;4.742;2023-02-28T03:15:38;9.40;;;5.57;;
10045;SDS011;5063;50.878;4.742;2023-02-28T03:18:40;7.67;;;5.97;;
10045;SDS011;5063;50.878;4.742;2023-02-28T03:21:32;7.87;;;5.50;;
10045;SDS011;5063;50.878;4.742;2023-02-28T03:26:36;8.93;;;6.77;;
10045;SDS011;5063;50.878;4.742;2023-02-28T03:31:54;6.63;;;5.37;;
10045;SDS011;5063;50.878;4.742;2023-02-28T03:34:31;12.77;;;6.73;;
10045;SDS011;5063;50.878;4.742;2023-02-28T03:37:06;8.20;;;5.70;;
10045;SDS011;5063;50.878;4.742;2023-02-28T03:39:42;8.83;;;6.70;;
10045;SDS011;5063;50.878;4.742;2023-02-28T03:42:14;7.10;;;5.53;;
10045;SDS011;5063;50.878;4.742;2023-02-28T03:44:48;10.10;;;7.00;;
10045;SDS011;5063;50.878;4.742;2023-02-28T03:47:31;11.17;;;6.90;;
10045;SDS011;5063;50.878;4.742;2023-02-28T03:52:42;9.57;;;6.83;;
10045;SDS011;5063;50.878;4.742;2023-02-28T03:55:14;7.73;;;6.53;;
10045;SDS011;5063;50.878;4.742;2023-02-28T03:58:11;8.33;;;6.33;;
10045;SDS011;5063;50.878;4.742;2023-02-28T04:01:31;8.73;;;6.53;;
10045;SDS011;5063;50.878;4.742;2023-02-28T04:03:54;8.13;;;7.07;;
10045;SDS011;5063;50.878;4.742;2023-02-28T04:06:20;8.07;;;6.63;;
10045;SDS011;5063;50.878;4.742;2023-02-28T04:08:48;11.13;;;7.10;;
10045;SDS011;5063;50.878;4.742;2023-02-28T04:11:19;12.20;;;7.67;;
10045;SDS011;5063;50.878;4.742;2023-02-28T04:13:48;15.03;;;8.33;;
10045;SDS011;5063;50.878;4.742;2023-02-28T04:16:15;10.10;;;7.17;;
10045;SDS011;5063;50.878;4.742;2023-02-28T04:18:41;11.50;;;6.90;;
10045;SDS011;5063;50.878;4.742;2023-02-28T04:21:08;10.73;;;6.70;;
10045;SDS011;5063;50.878;4.742;2023-02-28T04:23:35;10.87;;;7.53;;
10045;SDS011;5063;50.878;4.742;2023-02-28T04:26:01;9.30;;;6.90;;
10045;SDS011;5063;50.878;4.742;2023-02-28T04:28:27;9.50;;;7.43;;
10045;SDS011;5063;50.878;4.742;2023-02-28T04:31:00;12.27;;;7.60;;
10045;SDS011;5063;50.878;4.742;2023-02-28T04:33:28;9.50;;;7.83;;
10045;SDS011;5063;50.878;4.742;2023-02-28T04:36:01;9.33;;;7.10;;
10045;SDS011;5063;50.878;4.742;2023-02-28T04:38:35;11.07;;;7.43;;
10045;SDS011;5063;50.878;4.742;2023-02-28T04:41:02;12.10;;;7.80;;
10045;SDS011;5063;50.878;4.742;2023-02-28T04:43:29;12.33;;;7.97;;
10045;SDS011;5063;50.878;4.742;2023-02-28T04:45:56;10.80;;;7.40;;
10045;SDS011;5063;50.878;4.742;2023-02-28T04:48:29;11.43;;;7.43;;
10045;SDS011;5063;50.878;4.742;2023-02-28T04:51:29;14.07;;;7.97;;
10045;SDS011;5063;50.878;4.742;2023-02-28T04:53:48;11.03;;;7.77;;
10045;SDS011;5063;50.878;4.742;2023-02-28T04:56:16;13.60;;;7.90;;
10045;SDS011;5063;50.878;4.742;2023-02-28T04:58:42;12.60;;;7.67;;
10045;SDS011;5063;50.878;4.742;2023-02-28T05:01:19;10.93;;;7.63;;
10045;SDS011;5063;50.878;4.742;2023-02-28T05:03:47;11.90;;;8.77;;
10045;SDS011;5063;50.878;4.742;2023-02-28T05:06:13;9.97;;;7.67;;
10045;SDS011;5063;50.878;4.742;2023-02-28T05:08:39;12.43;;;8.37;;
10045;SDS011;5063;50.878;4.742;2023-02-28T05:11:16;12.30;;;8.67;;
10045;SDS011;5063;50.878;4.742;2023-02-28T05:13:44;13.17;;;8.77;;
10045;SDS011;5063;50.878;4.742;2023-02-28T05:16:10;9.80;;;8.53;;
10045;SDS011;5063;50.878;4.742;2023-02-28T05:18:36;11.57;;;7.83;;
10045;SDS011;5063;50.878;4.742;2023-02-28T05:21:02;15.23;;;8.70;;
10045;SDS011;5063;50.878;4.742;2023-02-28T05:23:28;14.43;;;8.70;;
10045;SDS011;5063;50.878;4.742;2023-02-28T05:25:55;12.87;;;8.23;;
10045;SDS011;5063;50.878;4.742;2023-02-28T05:28:21;12.20;;;8.70;;
10045;SDS011;5063;50.878;4.742;2023-02-28T05:30:47;11.17;;;8.43;;
10045;SDS011;5063;50.878;4.742;2023-02-28T05:33:13;12.17;;;7.93;;
10045;SDS011;5063;50.878;4.742;2023-02-28T05:35:40;11.23;;;8.00;;
10045;SDS011;5063;50.878;4.742;2023-02-28T05:38:07;12.90;;;8.90;;
10045;SDS011;5063;50.878;4.742;2023-02-28T05:40:32;13.07;;;9.20;;
10045;SDS011;5063;50.878;4.742;2023-02-28T05:42:58;14.97;;;8.67;;
10045;SDS011;5063;50.878;4.742;2023-02-28T05:45:24;10.23;;;8.30;;
10045;SDS011;5063;50.878;4.742;2023-02-28T05:47:53;14.10;;;9.47;;
10045;SDS011;5063;50.878;4.742;2023-02-28T05:50:19;11.63;;;8.37;;
10045;SDS011;5063;50.878;4.742;2023-02-28T05:52:48;13.50;;;8.80;;
10045;SDS011;5063;50.878;4.742;2023-02-28T05:55:17;14.17;;;8.77;;
10045;SDS011;5063;50.878;4.742;2023-02-28T05:57:43;10.73;;;8.10;;
10045;SDS011;5063;50.878;4.742;2023-02-28T06:00:09;11.87;;;8.37;;
10045;SDS011;5063;50.878;4.742;2023-02-28T06:02:36;14.60;;;9.23;;
10045;SDS011;5063;50.878;4.742;2023-02-28T06:05:03;15.23;;;7.90;;
10045;SDS011;5063;50.878;4.742;2023-02-28T06:07:30;13.10;;;9.33;;
10045;SDS011;5063;50.878;4.742;2023-02-28T06:09:55;15.10;;;9.30;;
10045;SDS011;5063;50.878;4.742;2023-02-28T06:12:21;14.80;;;9.83;;
10045;SDS011;5063;50.878;4.742;2023-02-28T06:14:47;13.87;;;8.83;;
10045;SDS011;5063;50.878;4.742;2023-02-28T06:17:12;13.23;;;9.83;;
10045;SDS011;5063;50.878;4.742;2023-02-28T06:19:38;13.27;;;9.30;;
10045;SDS011;5063;50.878;4.742;2023-02-28T06:22:06;14.67;;;10.13;;
10045;SDS011;5063;50.878;4.742;2023-02-28T06:24:32;11.00;;;8.63;;
10045;SDS011;5063;50.878;4.742;2023-02-28T06:26:57;14.27;;;9.80;;
10045;SDS011;5063;50.878;4.742;2023-02-28T06:29:30;13.03;;;8.67;;
10045;SDS011;5063;50.878;4.742;2023-02-28T06:31:56;12.17;;;8.53;;
10045;SDS011;5063;50.878;4.742;2023-02-28T06:34:22;12.70;;;8.87;;
10045;SDS011;5063;50.878;4.742;2023-02-28T06:36:49;15.77;;;9.50;;
10045;SDS011;5063;50.878;4.742;2023-02-28T06:39:16;11.10;;;8.67;;
10045;SDS011;5063;50.878;4.742;2023-02-28T06:41:42;19.27;;;10.07;;
10045;SDS011;5063;50.878;4.742;2023-02-28T06:44:17;12.43;;;8.53;;
10045;SDS011;5063;50.878;4.742;2023-02-28T06:46:43;18.10;;;10.20;;
10045;SDS011;5063;50.878;4.742;2023-02-28T06:49:10;11.77;;;8.47;;
10045;SDS011;5063;50.878;4.742;2023-02-28T06:51:37;11.57;;;8.77;;
10045;SDS011;5063;50.878;4.742;2023-02-28T06:54:10;12.80;;;9.57;;
10045;SDS011;5063;50.878;4.742;2023-02-28T06:56:36;10.73;;;8.20;;
10045;SDS011;5063;50.878;4.742;2023-02-28T06:59:01;15.27;;;9.27;;
10045;SDS011;5063;50.878;4.742;2023-02-28T07:01:28;10.90;;;8.33;;
10045;SDS011;5063;50.878;4.742;2023-02-28T07:03:56;14.33;;;9.50;;
10045;SDS011;5063;50.878;4.742;2023-02-28T07:06:22;12.00;;;9.27;;
10045;SDS011;5063;50.878;4.742;2023-02-28T07:08:50;13.67;;;10.20;;
10045;SDS011;5063;50.878;4.742;2023-02-28T07:11:18;13.47;;;8.47;;
10045;SDS011;5063;50.878;4.742;2023-02-28T07:13:44;12.77;;;9.00;;
10045;SDS011;5063;50.878;4.742;2023-02-28T07:16:12;11.90;;;9.17;;
10045;SDS011;5063;50.878;4.742;2023-02-28T07:18:38;14.57;;;9.67;;
10045;SDS011;5063;50.878;4.742;2023-02-28T07:21:05;14.37;;;10.63;;
10045;SDS011;5063;50.878;4.742;2023-02-28T07:23:33;15.63;;;10.80;;
10045;SDS011;5063;50.878;4.742;2023-02-28T07:25:59;13.53;;;9.93;;
10045;SDS011;5063;50.878;4.742;2023-02-28T07:28:25;14.23;;;9.23;;
10045;SDS011;5063;50.878;4.742;2023-02-28T07:30:52;17.83;;;10.83;;
10045;SDS011;5063;50.878;4.742;2023-02-28T07:33:17;18.93;;;10.00;;
10045;SDS011;5063;50.878;4.742;2023-02-28T07:35:43;14.60;;;9.33;;
10045;SDS011;5063;50.878;4.742;2023-02-28T07:38:09;10.60;;;8.03;;
10045;SDS011;5063;50.878;4.742;2023-02-28T07:40:36;9.60;;;7.20;;
10045;SDS011;5063;50.878;4.742;2023-02-28T07:43:02;11.10;;;6.47;;
10045;SDS011;5063;50.878;4.742;2023-02-28T07:45:28;10.80;;;6.90;;
10045;SDS011;5063;50.878;4.742;2023-02-28T07:47:55;9.90;;;6.87;;
10045;SDS011;5063;50.878;4.742;2023-02-28T07:50:21;9.07;;;5.90;;
10045;SDS011;5063;50.878;4.742;2023-02-28T07:52:47;11.27;;;6.60;;
10045;SDS011;5063;50.878;4.742;2023-02-28T07:55:13;10.53;;;7.53;;
10045;SDS011;5063;50.878;4.742;2023-02-28T07:57:39;9.73;;;5.90;;
10045;SDS011;5063;50.878;4.742;2023-02-28T08:00:06;10.30;;;7.07;;
10045;SDS011;5063;50.878;4.742;2023-02-28T08:02:35;10.07;;;6.43;;
10045;SDS011;5063;50.878;4.742;2023-02-28T08:05:01;8.57;;;6.03;;
10045;SDS011;5063;50.878;4.742;2023-02-28T08:07:27;7.43;;;6.33;;
10045;SDS011;5063;50.878;4.742;2023-02-28T08:09:53;8.17;;;5.70;;
10045;SDS011;5063;50.878;4.742;2023-02-28T08:12:19;7.17;;;5.87;;
10045;SDS011;5063;50.878;4.742;2023-02-28T08:14:45;8.93;;;6.07;;
10045;SDS011;5063;50.878;4.742;2023-02-28T08:17:11;6.97;;;5.37;;
10045;SDS011;5063;50.878;4.742;2023-02-28T08:19:37;8.60;;;5.13;;
10045;SDS011;5063;50.878;4.742;2023-02-28T08:22:03;6.60;;;5.13;;
10045;SDS011;5063;50.878;4.742;2023-02-28T08:24:28;7.70;;;5.60;;
10045;SDS011;5063;50.878;4.742;2023-02-28T08:26:54;6.80;;;5.50;;
10045;SDS011;5063;50.878;4.742;2023-02-28T08:29:21;10.63;;;5.83;;
10045;SDS011;5063;50.878;4.742;2023-02-28T08:31:47;7.43;;;4.53;;
10045;SDS011;5063;50.878;4.742;2023-02-28T08:34:13;10.40;;;5.67;;
10045;SDS011;5063;50.878;4.742;2023-02-28T08:36:41;6.27;;;5.23;;
10045;SDS011;5063;50.878;4.742;2023-02-28T08:39:09;6.23;;;4.27;;
10045;SDS011;5063;50.878;4.742;2023-02-28T08:41:35;7.63;;;5.27;;
10045;SDS011;5063;50.878;4.742;2023-02-28T08:44:01;8.60;;;4.80;;
10045;SDS011;5063;50.878;4.742;2023-02-28T08:46:27;7.53;;;5.00;;
10045;SDS011;5063;50.878;4.742;2023-02-28T08:48:54;6.63;;;4.40;;
10045;SDS011;5063;50.878;4.742;2023-02-28T08:51:21;9.80;;;4.87;;
10045;SDS011;5063;50.878;4.742;2023-02-28T08:53:54;7.87;;;4.60;;
10045;SDS011;5063;50.878;4.742;2023-02-28T08:56:23;4.83;;;4.33;;
10045;SDS011;5063;50.878;4.742;2023-02-28T08:58:49;4.13;;;3.73;;
10045;SDS011;5063;50.878;4.742;2023-02-28T09:01:16;8.83;;;3.87;;
10045;SDS011;5063;50.878;4.742;2023-02-28T09:03:44;5.07;;;3.60;;
10045;SDS011;5063;50.878;4.742;2023-02-28T09:06:11;4.23;;;3.80;;
10045;SDS011;5063;50.878;4.742;2023-02-28T09:08:37;6.63;;;4.27;;
10045;SDS011;5063;50.878;4.742;2023-02-28T09:11:03;4.57;;;3.73;;
10045;SDS011;5063;50.878;4.742;2023-02-28T09:13:30;5.17;;;3.70;;
10045;SDS011;5063;50.878;4.742;2023-02-28T09:15:57;7.47;;;3.93;;
10045;SDS011;5063;50.878;4.742;2023-02-28T09:18:25;8.07;;;4.07;;
10045;SDS011;5063;50.878;4.742;2023-02-28T09:20:51;4.33;;;3.33;;
10045;SDS011;5063;50.878;4.742;2023-02-28T09:23:17;4.03;;;3.53;;
10045;SDS011;5063;50.878;4.742;2023-02-28T09:25:46;3.60;;;3.30;;
10045;SDS011;5063;50.878;4.742;2023-02-28T09:28:14;4.77;;;3.53;;
10045;SDS011;5063;50.878;4.742;2023-02-28T09:30:50;4.00;;;3.40;;
10045;SDS011;5063;50.878;4.742;2023-02-28T09:33:18;5.40;;;3.40;;
10045;SDS011;5063;50.878;4.742;2023-02-28T09:35:47;6.63;;;3.60;;
10045;SDS011;5063;50.878;4.742;2023-02-28T09:38:14;5.93;;;3.20;;
10045;SDS011;5063;50.878;4.742;2023-02-28T09:43:17;6.53;;;3.37;;
10045;SDS011;5063;50.878;4.742;2023-02-28T09:48:54;4.07;;;2.87;;
10045;SDS011;5063;50.878;4.742;2023-02-28T09:54:03;4.03;;;2.93;;
10045;SDS011;5063;50.878;4.742;2023-02-28T09:56:31;4.63;;;2.63;;
10045;SDS011;5063;50.878;4.742;2023-02-28T09:59:13;3.43;;;2.70;;
10045;SDS011;5063;50.878;4.742;2023-02-28T10:07:35;3.43;;;2.67;;
10045;SDS011;5063;50.878;4.742;2023-02-28T10:10:25;2.80;;;2.60;;
10045;SDS011;5063;50.878;4.742;2023-02-28T10:13:01;4.00;;;2.83;;
10045;SDS011;5063;50.878;4.742;2023-02-28T10:15:30;4.10;;;2.53;;
10045;SDS011;5063;50.878;4.742;2023-02-28T10:17:59;4.03;;;2.40;;
10045;SDS011;5063;50.878;4.742;2023-02-28T10:20:28;3.10;;;2.80;;
10045;SDS011;5063;50.878;4.742;2023-02-28T10:25:28;3.47;;;2.80;;
10045;SDS011;5063;50.878;4.742;2023-02-28T10:28:14;3.07;;;2.30;;
10045;SDS011;5063;50.878;4.742;2023-02-28T10:30:42;2.57;;;2.30;;
10045;SDS011;5063;50.878;4.742;2023-02-28T10:33:19;2.70;;;2.50;;
10045;SDS011;5063;50.878;4.742;2023-02-28T10:35:50;3.10;;;2.37;;
10045;SDS011;5063;50.878;4.742;2023-02-28T10:38:18;2.80;;;2.30;;
10045;SDS011;5063;50.878;4.742;2023-02-28T10:40:50;3.40;;;2.20;;
10045;SDS011;5063;50.878;4.742;2023-02-28T10:45:58;3.73;;;2.33;;
10045;SDS011;5063;50.878;4.742;2023-02-28T10:48:41;4.10;;;2.57;;
10045;SDS011;5063;50.878;4.742;2023-02-28T10:51:11;3.00;;;2.50;;
10045;SDS011;5063;50.878;4.742;2023-02-28T10:53:51;6.67;;;2.70;;
10045;SDS011;5063;50.878;4.742;2023-02-28T10:56:23;2.60;;;2.33;;
10045;SDS011;5063;50.878;4.742;2023-02-28T10:58:54;3.10;;;2.37;;
10045;SDS011;5063;50.878;4.742;2023-02-28T11:01:44;4.23;;;2.43;;
10045;SDS011;5063;50.878;4.742;2023-02-28T11:04:17;2.70;;;2.50;;
10045;SDS011;5063;50.878;4.742;2023-02-28T11:07:04;2.63;;;2.30;;
10045;SDS011;5063;50.878;4.742;2023-02-28T11:12:44;2.43;;;2.23;;
10045;SDS011;5063;50.878;4.742;2023-02-28T11:17:52;3.57;;;2.10;;
10045;SDS011;5063;50.878;4.742;2023-02-28T11:20:26;2.50;;;2.10;;
10045;SDS011;5063;50.878;4.742;2023-02-28T11:22:55;2.63;;;2.10;;
10045;SDS011;5063;50.878;4.742;2023-02-28T11:25:23;3.60;;;2.37;;
10045;SDS011;5063;50.878;4.742;2023-02-28T11:27:52;3.83;;;2.17;;
10045;SDS011;5063;50.878;4.742;2023-02-28T11:32:57;2.47;;;2.00;;
10045;SDS011;5063;50.878;4.742;2023-02-28T11:35:24;2.43;;;2.07;;
10045;SDS011;5063;50.878;4.742;2023-02-28T11:38:05;3.47;;;2.40;;
10045;SDS011;5063;50.878;4.742;2023-02-28T11:43:27;2.30;;;2.10;;
10045;SDS011;5063;50.878;4.742;2023-02-28T11:46:18;2.07;;;1.87;;
10045;SDS011;5063;50.878;4.742;2023-02-28T11:49:04;2.23;;;2.03;;
10045;SDS011;5063;50.878;4.742;2023-02-28T11:51:50;3.20;;;2.50;;
10045;SDS011;5063;50.878;4.742;2023-02-28T12:05:22;3.67;;;2.13;;
10045;SDS011;5063;50.878;4.742;2023-02-28T12:10:37;2.87;;;2.37;;
10045;SDS011;5063;50.878;4.742;2023-02-28T12:13:11;3.40;;;2.20;;
10045;SDS011;5063;50.878;4.742;2023-02-28T12:21:18;9.23;;;3.10;;
10045;SDS011;5063;50.878;4.742;2023-02-28T12:26:36;2.30;;;2.10;;
10045;SDS011;5063;50.878;4.742;2023-02-28T12:29:24;2.50;;;2.30;;
10045;SDS011;5063;50.878;4.742;2023-02-28T12:32:19;4.60;;;3.33;;
10045;SDS011;5063;50.878;4.742;2023-02-28T12:34:57;6.70;;;4.10;;
10045;SDS011;5063;50.878;4.742;2023-02-28T12:40:19;8.83;;;4.60;;
10045;SDS011;5063;50.878;4.742;2023-02-28T12:42:49;6.83;;;4.70;;
10045;SDS011;5063;50.878;4.742;2023-02-28T12:45:26;2.40;;;2.20;;
10045;SDS011;5063;50.878;4.742;2023-02-28T12:48:18;3.30;;;2.97;;
10045;SDS011;5063;50.878;4.742;2023-02-28T12:50:52;2.20;;;2.00;;
10045;SDS011;5063;50.878;4.742;2023-02-28T12:53:35;4.03;;;2.13;;
10045;SDS011;5063;50.878;4.742;2023-02-28T13:04:54;2.70;;;2.20;;
10045;SDS011;5063;50.878;4.742;2023-02-28T13:09:54;4.27;;;2.50;;
10045;SDS011;5063;50.878;4.742;2023-02-28T13:12:22;3.50;;;2.80;;
10045;SDS011;5063;50.878;4.742;2023-02-28T13:14:49;2.60;;;2.10;;
10045;SDS011;5063;50.878;4.742;2023-02-28T13:17:19;2.33;;;2.13;;
10045;SDS011;5063;50.878;4.742;2023-02-28T13:19:55;2.83;;;2.13;;
10045;SDS011;5063;50.878;4.742;2023-02-28T13:22:40;3.60;;;2.43;;
10045;SDS011;5063;50.878;4.742;2023-02-28T13:27:47;2.63;;;2.20;;
10045;SDS011;5063;50.878;4.742;2023-02-28T13:36:09;3.23;;;2.80;;
10045;SDS011;5063;50.878;4.742;2023-02-28T13:38:42;3.30;;;2.30;;
10045;SDS011;5063;50.878;4.742;2023-02-28T13:44:12;2.53;;;2.03;;
10045;SDS011;5063;50.878;4.742;2023-02-28T13:54:40;4.60;;;2.80;;
10045;SDS011;5063;50.878;4.742;2023-02-28T14:00:30;3.17;;;2.50;;
10045;SDS011;5063;50.878;4.742;2023-02-28T14:03:14;3.90;;;2.07;;
10045;SDS011;5063;50.878;4.742;2023-02-28T14:08:52;3.00;;;2.53;;
10045;SDS011;5063;50.878;4.742;2023-02-28T14:11:33;3.23;;;2.37;;
10045;SDS011;5063;50.878;4.742;2023-02-28T14:14:00;3.40;;;2.67;;
10045;SDS011;5063;50.878;4.742;2023-02-28T14:16:34;3.40;;;2.40;;
10045;SDS011;5063;50.878;4.742;2023-02-28T14:35:35;2.80;;;2.60;;
10045;SDS011;5063;50.878;4.742;2023-02-28T14:38:04;4.73;;;3.00;;
10045;SDS011;5063;50.878;4.742;2023-02-28T14:40:33;3.30;;;3.00;;
10045;SDS011;5063;50.878;4.742;2023-02-28T14:43:01;2.80;;;2.50;;
10045;SDS011;5063;50.878;4.742;2023-02-28T14:45:29;2.90;;;2.70;;
10045;SDS011;5063;50.878;4.742;2023-02-28T14:47:57;3.90;;;2.70;;
10045;SDS011;5063;50.878;4.742;2023-02-28T14:50:26;2.73;;;2.53;;
10045;SDS011;5063;50.878;4.742;2023-02-28T14:52:57;3.37;;;3.07;;
10045;SDS011;5063;50.878;4.742;2023-02-28T14:55:36;3.17;;;2.50;;
10045;SDS011;5063;50.878;4.742;2023-02-28T14:58:03;3.67;;;3.00;;
10045;SDS011;5063;50.878;4.742;2023-02-28T15:00:46;5.67;;;2.87;;
10045;SDS011;5063;50.878;4.742;2023-02-28T15:03:21;6.40;;;3.00;;
10045;SDS011;5063;50.878;4.742;2023-02-28T15:05:56;3.07;;;2.60;;
10045;SDS011;5063;50.878;4.742;2023-02-28T15:08:30;4.67;;;2.70;;
10045;SDS011;5063;50.878;4.742;2023-02-28T15:11:02;5.20;;;2.63;;
10045;SDS011;5063;50.878;4.742;2023-02-28T15:13:47;3.50;;;2.23;;
10045;SDS011;5063;50.878;4.742;2023-02-28T15:16:19;2.70;;;2.50;;
10045;SDS011;5063;50.878;4.742;2023-02-28T15:21:16;2.97;;;2.50;;
10045;SDS011;5063;50.878;4.742;2023-02-28T15:23:53;4.03;;;2.80;;
10045;SDS011;5063;50.878;4.742;2023-02-28T15:26:31;3.57;;;2.87;;
10045;SDS011;5063;50.878;4.742;2023-02-28T15:29:00;2.80;;;2.40;;
10045;SDS011;5063;50.878;4.742;2023-02-28T15:31:31;4.43;;;2.83;;
10045;SDS011;5063;50.878;4.742;2023-02-28T15:34:03;3.17;;;2.87;;
10045;SDS011;5063;50.878;4.742;2023-02-28T15:36:32;3.90;;;3.17;;
10045;SDS011;5063;50.878;4.742;2023-02-28T15:39:02;4.87;;;3.33;;
10045;SDS011;5063;50.878;4.742;2023-02-28T15:41:43;2.43;;;2.23;;
10045;SDS011;5063;50.878;4.742;2023-02-28T15:47:06;3.07;;;2.60;;
10045;SDS011;5063;50.878;4.742;2023-02-28T15:49:48;2.50;;;2.30;;
10045;SDS011;5063;50.878;4.742;2023-02-28T15:52:16;4.77;;;3.13;;
10045;SDS011;5063;50.878;4.742;2023-02-28T15:54:45;3.60;;;2.43;;
10045;SDS011;5063;50.878;4.742;2023-02-28T15:57:30;2.97;;;2.67;;
10045;SDS011;5063;50.878;4.742;2023-02-28T15:59:57;2.80;;;2.50;;
10045;SDS011;5063;50.878;4.742;2023-02-28T16:02:30;4.53;;;2.63;;
10045;SDS011;5063;50.878;4.742;2023-02-28T16:07:36;3.17;;;2.87;;
10045;SDS011;5063;50.878;4.742;2023-02-28T16:10:04;3.07;;;2.37;;
10045;SDS011;5063;50.878;4.742;2023-02-28T16:12:31;3.57;;;2.60;;
10045;SDS011;5063;50.878;4.742;2023-02-28T16:14:59;5.60;;;3.60;;
10045;SDS011;5063;50.878;4.742;2023-02-28T16:17:29;3.00;;;2.67;;
10045;SDS011;5063;50.878;4.742;2023-02-28T16:19:59;3.70;;;2.97;;
10045;SDS011;5063;50.878;4.742;2023-02-28T16:22:26;2.83;;;2.63;;
10045;SDS011;5063;50.878;4.742;2023-02-28T16:24:51;3.00;;;2.70;;
10045;SDS011;5063;50.878;4.742;2023-02-28T16:27:31;3.67;;;2.67;;
10045;SDS011;5063;50.878;4.742;2023-02-28T16:29:58;3.57;;;2.37;;
10045;SDS011;5063;50.878;4.742;2023-02-28T16:32:25;3.63;;;2.43;;
10045;SDS011;5063;50.878;4.742;2023-02-28T16:34:50;3.57;;;2.40;;
10045;SDS011;5063;50.878;4.742;2023-02-28T16:37:17;2.77;;;2.40;;
10045;SDS011;5063;50.878;4.742;2023-02-28T16:39:43;5.40;;;2.83;;
10045;SDS011;5063;50.878;4.742;2023-02-28T16:42:20;3.60;;;2.80;;
10045;SDS011;5063;50.878;4.742;2023-02-28T16:44:50;2.83;;;2.57;;
10045;SDS011;5063;50.878;4.742;2023-02-28T16:47:17;5.80;;;3.10;;
10045;SDS011;5063;50.878;4.742;2023-02-28T16:49:43;3.30;;;2.80;;
10045;SDS011;5063;50.878;4.742;2023-02-28T16:52:10;2.90;;;2.53;;
10045;SDS011;5063;50.878;4.742;2023-02-28T16:54:37;3.50;;;3.20;;
10045;SDS011;5063;50.878;4.742;2023-02-28T16:57:04;5.67;;;3.67;;
10045;SDS011;5063;50.878;4.742;2023-02-28T16:59:31;3.13;;;2.80;;
10045;SDS011;5063;50.878;4.742;2023-02-28T17:01:57;5.23;;;2.87;;
10045;SDS011;5063;50.878;4.742;2023-02-28T17:04:24;3.17;;;2.63;;
10045;SDS011;5063;50.878;4.742;2023-02-28T17:06:51;5.70;;;2.90;;
10045;SDS011;5063;50.878;4.742;2023-02-28T17:09:18;5.50;;;3.30;;
10045;SDS011;5063;50.878;4.742;2023-02-28T17:11:48;4.87;;;3.23;;
10045;SDS011;5063;50.878;4.742;2023-02-28T17:14:14;3.43;;;2.73;;
10045;SDS011;5063;50.878;4.742;2023-02-28T17:16:41;4.73;;;2.90;;
10045;SDS011;5063;50.878;4.742;2023-02-28T17:19:14;6.30;;;3.60;;
10045;SDS011;5063;50.878;4.742;2023-02-28T17:21:42;3.37;;;2.83;;
10045;SDS011;5063;50.878;4.742;2023-02-28T17:24:08;3.90;;;3.20;;
10045;SDS011;5063;50.878;4.742;2023-02-28T17:26:37;5.27;;;2.87;;
10045;SDS011;5063;50.878;4.742;2023-02-28T17:29:05;6.27;;;2.90;;
10045;SDS011;5063;50.878;4.742;2023-02-28T17:31:38;4.33;;;3.20;;
10045;SDS011;5063;50.878;4.742;2023-02-28T17:34:04;4.93;;;3.37;;
10045;SDS011;5063;50.878;4.742;2023-02-28T17:36:30;4.57;;;3.30;;
10045;SDS011;5063;50.878;4.742;2023-02-28T17:38:58;3.50;;;3.20;;
10045;SDS011;5063;50.878;4.742;2023-02-28T17:41:24;4.27;;;3.27;;
10045;SDS011;5063;50.878;4.742;2023-02-28T17:43:51;3.87;;;3.13;;
10045;SDS011;5063;50.878;4.742;2023-02-28T17:46:21;4.63;;;3.47;;
10045;SDS011;5063;50.878;4.742;2023-02-28T17:48:49;4.57;;;3.07;;
10045;SDS011;5063;50.878;4.742;2023-02-28T17:51:16;5.60;;;3.17;;
10045;SDS011;5063;50.878;4.742;2023-02-28T17:53:43;4.93;;;3.60;;